Time;durP1;ratioP1;P1;durP2;ratioP2;P2;SDS_P1;SDS_P2;PMS_P1;PMS_P2;Temp;Humidity;BMP_temperature;BMP_pressure;BME280_temperature;BME280_humidity;BME280_pressure;Samples;Min_cycle;Max_cycle;Signal;HPM_P1;HPM_P2
2022/08/08 00:00:04;;;;;;;8.60;3.83;;;;;;;14.25;100.00;92755.78;5052010;28;20033;-73
2022/08/08 00:02:46;;;;;;;7.95;4.05;;;;;;;14.22;100.00;92753.72;5051821;28;20041;-72
2022/08/08 00:05:57;;;;;;;16.33;3.95;;;;;;;14.20;100.00;92755.09;5050791;28;20473;-73
2022/08/08 00:08:35;;;;;;;9.05;3.63;;;;;;;14.12;100.00;92751.34;5047870;28;20045;-73
2022/08/08 00:11:24;;;;;;;8.35;3.90;;;;;;;14.09;100.00;92744.81;5051888;28;20037;-73
2022/08/08 00:14:12;;;;;;;7.75;3.90;;;;;;;14.09;100.00;92749.31;5051574;28;20033;-73
2022/08/08 00:16:54;;;;;;;12.80;4.03;;;;;;;14.07;100.00;92747.00;5051349;28;20033;-73
2022/08/08 00:19:54;;;;;;;8.90;4.13;;;;;;;14.04;100.00;92746.81;5050466;28;20103;-72
2022/08/08 00:22:26;;;;;;;10.43;3.95;;;;;;;14.04;100.00;92746.81;5027161;28;20112;-73
2022/08/08 00:25:06;;;;;;;11.35;4.55;;;;;;;14.06;100.00;92736.75;5050227;28;20498;-73
2022/08/08 00:27:36;;;;;;;7.57;4.20;;;;;;;14.07;100.00;92733.84;5050005;28;20426;-72
2022/08/08 00:30:06;;;;;;;10.38;4.70;;;;;;;14.06;100.00;92734.13;5052008;28;20380;-72
2022/08/08 00:32:39;;;;;;;8.38;3.58;;;;;;;14.08;100.00;92731.97;5042797;28;20057;-72
2022/08/08 00:35:22;;;;;;;9.65;4.00;;;;;;;14.08;100.00;92734.59;5030227;28;20040;-73
2022/08/08 00:38:01;;;;;;;11.48;3.80;;;;;;;14.08;100.00;92729.34;5028580;28;20040;-73
2022/08/08 00:40:27;;;;;;;8.88;4.07;;;;;;;14.08;100.00;92732.75;5026126;28;20029;-73
2022/08/08 00:43:24;;;;;;;9.98;4.03;;;;;;;14.01;100.00;92732.41;5029782;28;20491;-73
2022/08/08 00:46:08;;;;;;;7.57;3.70;;;;;;;14.00;100.00;92733.47;5028600;28;20069;-73
2022/08/08 00:48:59;;;;;;;10.73;3.97;;;;;;;13.98;100.00;92727.72;5029753;28;20037;-73
2022/08/08 00:51:49;;;;;;;10.88;3.78;;;;;;;13.97;100.00;92726.19;5031307;28;20068;-73
2022/08/08 00:54:47;;;;;;;8.73;4.00;;;;;;;13.98;100.00;92724.31;5029973;28;20048;-72
2022/08/08 00:57:25;;;;;;;7.43;3.72;;;;;;;14.01;100.00;92715.84;5029658;28;20403;-73
2022/08/08 01:00:18;;;;;;;12.52;4.53;;;;;;;14.10;100.00;92721.94;5029526;28;20124;-73
2022/08/08 01:03:11;;;;;;;9.93;4.10;;;;;;;14.22;100.00;92719.50;5029867;28;20061;-73
2022/08/08 01:06:14;;;;;;;7.15;3.80;;;;;;;14.46;96.30;92726.28;5012939;28;20529;-72
2022/08/08 01:09:21;;;;;;;9.50;4.00;;;;;;;14.58;94.39;92726.50;5029381;28;20029;-73
2022/08/08 01:12:09;;;;;;;10.25;4.55;;;;;;;14.61;95.74;92722.47;5013383;28;20431;-73
2022/08/08 01:15:02;;;;;;;11.40;4.00;;;;;;;14.57;96.86;92719.69;5013185;28;20609;-73
2022/08/08 01:18:00;;;;;;;11.85;4.30;;;;;;;14.47;98.91;92718.06;5029420;28;20039;-73
2022/08/08 01:21:06;;;;;;;7.88;3.97;;;;;;;14.40;99.21;92714.31;5013130;28;20314;-72
2022/08/08 01:23:42;;;;;;;11.20;4.45;;;;;;;14.32;99.71;92711.34;5029424;28;20128;-73
2022/08/08 01:26:26;;;;;;;10.23;3.92;;;;;;;14.28;100.00;92710.41;5029574;28;20048;-73
2022/08/08 01:29:04;;;;;;;8.93;4.10;;;;;;;14.24;100.00;92719.97;5012875;28;20494;-73
2022/08/08 01:31:44;;;;;;;7.57;4.22;;;;;;;14.25;99.69;92711.00;5029333;28;20044;-73
2022/08/08 01:34:10;;;;;;;16.35;4.57;;;;;;;14.22;100.00;92719.50;5029615;28;20041;-73
2022/08/08 01:37:13;;;;;;;8.98;4.82;;;;;;;14.21;99.89;92717.97;5030267;28;20483;-72
2022/08/08 01:40:11;;;;;;;7.10;3.78;;;;;;;14.21;99.72;92714.53;5029275;28;20048;-73
2022/08/08 01:42:56;;;;;;;7.30;4.15;;;;;;;14.22;100.00;92718.72;5029932;28;20491;-73
2022/08/08 01:45:40;;;;;;;8.30;3.90;;;;;;;14.17;99.66;92722.28;5030356;28;20108;-73
2022/08/08 01:48:43;;;;;;;8.23;3.60;;;;;;;14.17;100.00;92730.16;5029263;28;20029;-73
2022/08/08 01:51:37;;;;;;;9.80;4.10;;;;;;;14.08;100.00;92721.44;5029183;28;20033;-73
2022/08/08 01:54:56;;;;;;;10.95;4.03;;;;;;;14.02;100.00;92722.66;5044505;28;20387;-73
2022/08/08 01:57:45;;;;;;;8.00;3.92;;;;;;;13.99;100.00;92718.75;5010341;28;20485;-73
2022/08/08 02:00:49;;;;;;;7.85;3.90;;;;;;;13.99;100.00;92723.25;5036441;28;20060;-73
2022/08/08 02:03:29;;;;;;;6.85;3.63;;;;;;;13.96;100.00;92722.00;5036476;28;20298;-73
2022/08/08 02:06:06;;;;;;;7.60;3.92;;;;;;;13.91;100.00;92728.13;5035966;28;20048;-73
2022/08/08 02:08:46;;;;;;;10.27;3.85;;;;;;;13.86;100.00;92728.28;5036060;28;20549;-72
2022/08/08 02:11:42;;;;;;;7.18;4.22;;;;;;;13.83;100.00;92726.25;5036348;28;20063;-73
2022/08/08 02:14:35;;;;;;;9.23;3.83;;;;;;;13.80;100.00;92726.84;5036483;28;20029;-73
2022/08/08 02:17:04;;;;;;;9.20;3.67;;;;;;;13.76;100.00;92720.63;5019728;28;20541;-73
2022/08/08 02:20:04;;;;;;;8.25;3.28;;;;;;;13.78;100.00;92725.59;5019862;28;20028;-72
2022/08/08 02:22:48;;;;;;;9.48;3.70;;;;;;;13.74;100.00;92712.25;5029439;28;20134;-72
2022/08/08 02:25:16;;;;;;;7.78;3.60;;;;;;;13.71;100.00;92715.47;5033774;28;20086;-72
2022/08/08 02:27:58;;;;;;;11.52;3.50;;;;;;;13.68;100.00;92718.72;5015774;28;20042;-72
2022/08/08 02:30:58;;;;;;;7.97;3.45;;;;;;;13.69;100.00;92720.25;5016101;28;20037;-73
2022/08/08 02:33:36;;;;;;;6.40;3.53;;;;;;;13.67;100.00;92714.53;5015907;28;20044;-73
2022/08/08 02:36:28;;;;;;;7.35;3.55;;;;;;;13.67;100.00;92722.44;5033489;28;20037;-73
2022/08/08 02:39:01;;;;;;;7.10;3.22;;;;;;;13.65;100.00;92721.94;5015646;28;20041;-73
2022/08/08 02:42:16;;;;;;;6.57;3.60;;;;;;;13.64;100.00;92717.75;5015658;28;20029;-73
2022/08/08 02:44:57;;;;;;;;;;;;;;;13.67;100.00;92725.06;4972442;28;20038;-72
2022/08/08 02:47:27;;;;;;;5.60;3.03;;;;;;;13.67;100.00;92727.69;4971973;28;19936;-72
2022/08/08 02:50:12;;;;;;;5.72;3.10;;;;;;;13.67;100.00;92720.56;4995057;28;20187;-73
2022/08/08 02:52:49;;;;;;;9.60;3.30;;;;;;;13.69;100.00;92715.00;5015220;28;20042;-73
2022/08/08 02:55:55;;;;;;;8.75;3.80;;;;;;;13.72;100.00;92714.41;5015572;28;20492;-73
2022/08/08 02:58:39;;;;;;;10.20;3.53;;;;;;;13.73;100.00;92716.75;5008060;28;20045;-73
2022/08/08 03:01:32;;;;;;;7.05;3.63;;;;;;;13.75;100.00;92713.81;5028783;28;20033;-73
2022/08/08 03:04:16;;;;;;;;;;;;;;;13.73;100.00;92715.97;5032196;28;20033;-72
2022/08/08 03:06:51;;;;;;;6.75;3.20;;;;;;;13.70;100.00;92716.56;5045143;28;19986;-72
2022/08/08 03:09:48;;;;;;;10.25;3.33;;;;;;;13.71;100.00;92723.38;5015134;28;20057;-73
2022/08/08 03:12:16;;;;;;;7.80;3.67;;;;;;;13.69;100.00;92718.44;5031908;28;20125;-73
2022/08/08 03:15:16;;;;;;;7.13;3.30;;;;;;;13.72;100.00;92714.41;5031608;28;20037;-72
2022/08/08 03:17:50;;;;;;;8.85;3.55;;;;;;;13.73;100.00;92716.75;5032923;28;20030;-73
2022/08/08 03:20:16;;;;;;;8.07;3.38;;;;;;;13.75;100.00;92722.47;5015290;28;20044;-73
2022/08/08 03:22:47;;;;;;;6.05;3.30;;;;;;;13.71;100.00;92713.66;5031535;28;20087;-72
2022/08/08 03:25:15;;;;;;;7.65;3.50;;;;;;;13.70;100.00;92716.56;5031885;28;20440;-73
2022/08/08 03:27:56;;;;;;;7.03;3.25;;;;;;;13.69;100.00;92715.00;5031531;28;20554;-73
2022/08/08 03:30:23;;;;;;;6.07;3.10;;;;;;;13.66;100.00;92726.13;5031498;28;20133;-73
2022/08/08 03:35:40;;;;;;;11.18;3.55;;;;;;;13.61;100.00;92721.75;5017630;28;20092;-73
2022/08/08 03:38:07;;;;;;;7.40;3.08;;;;;;;13.59;100.00;92723.91;5014837;28;20034;-73
2022/08/08 03:40:34;;;;;;;5.68;2.78;;;;;;;13.57;100.00;92720.78;5031312;28;20041;-73
2022/08/08 03:43:09;;;;;;;7.65;3.08;;;;;;;13.58;100.00;92724.19;5031136;28;20487;-73
2022/08/08 03:45:37;;;;;;;8.43;2.90;;;;;;;13.62;100.00;92725.16;5031069;28;20033;-73
2022/08/08 03:48:09;;;;;;;5.90;2.97;;;;;;;13.59;100.00;92731.03;5032089;28;20537;-72
2022/08/08 03:50:47;;;;;;;5.28;2.92;;;;;;;13.58;100.00;92724.19;5032363;28;20042;-73
2022/08/08 03:53:17;;;;;;;5.43;3.20;;;;;;;13.56;100.00;92726.38;5039052;28;20057;-73
2022/08/08 03:55:48;;;;;;;5.32;2.90;;;;;;;13.54;100.00;92724.81;5034158;28;20071;-72
2022/08/08 03:58:20;;;;;;;6.85;3.08;;;;;;;13.56;100.00;92723.75;5034051;28;20029;-72
2022/08/08 04:00:51;;;;;;;5.18;3.20;;;;;;;13.60;100.00;92740.47;5033951;28;20044;-72
2022/08/08 04:03:19;;;;;;;7.00;3.08;;;;;;;13.58;100.00;92734.72;5034120;28;20530;-72
2022/08/08 04:05:45;;;;;;;4.80;2.72;;;;;;;13.58;100.00;92732.09;5034382;28;20119;-73
2022/08/08 04:08:23;;;;;;;6.00;2.75;;;;;;;13.58;100.00;92732.88;5033847;28;20033;-73
2022/08/08 04:10:51;;;;;;;5.35;2.83;;;;;;;13.59;100.00;92741.56;5033872;28;20118;-72
2022/08/08 04:13:21;;;;;;;6.82;2.75;;;;;;;13.60;100.00;92748.34;5033900;28;20033;-72
2022/08/08 04:15:55;;;;;;;8.25;3.35;;;;;;;13.59;100.00;92741.56;5033566;28;20033;-72
2022/08/08 04:18:22;;;;;;;6.68;3.15;;;;;;;13.57;100.00;92743.69;5033100;28;20032;-72
2022/08/08 04:20:47;;;;;;;7.63;3.08;;;;;;;13.57;100.00;92754.22;5033716;28;20026;-73
2022/08/08 04:23:13;;;;;;;5.63;3.03;;;;;;;13.56;100.00;92745.56;5029274;28;20415;-73
2022/08/08 04:25:40;;;;;;;5.70;3.08;;;;;;;13.57;100.00;92748.97;5029994;28;20048;-72
2022/08/08 04:28:07;;;;;;;7.95;3.00;;;;;;;13.57;100.00;92748.97;5017120;28;20473;-72
2022/08/08 04:30:33;;;;;;;5.32;3.13;;;;;;;13.62;100.00;92749.63;5033559;28;20513;-72
2022/08/08 04:32:59;;;;;;;6.68;3.30;;;;;;;13.64;100.00;92752.72;5051056;28;20037;-72
2022/08/08 04:35:29;;;;;;;7.07;3.60;;;;;;;13.69;100.00;92757.88;5033405;28;20041;-72
2022/08/08 04:37:55;;;;;;;6.13;2.88;;;;;;;13.71;100.00;92761.00;5033243;28;20137;-72
2022/08/08 04:40:25;;;;;;;7.05;3.15;;;;;;;13.73;100.00;92763.31;5017592;28;20033;-72
2022/08/08 04:42:55;;;;;;;7.70;3.60;;;;;;;13.73;100.00;92766.75;5032977;28;20132;-72
2022/08/08 04:45:22;;;;;;;5.55;3.40;;;;;;;13.74;100.00;92764.88;5014485;28;20080;-72
2022/08/08 04:47:48;;;;;;;5.05;3.08;;;;;;;13.75;100.00;92769.81;4993634;28;20039;-72
2022/08/08 04:50:16;;;;;;;6.63;2.90;;;;;;;13.79;100.00;92788.44;5002332;28;20052;-72
2022/08/08 04:52:42;;;;;;;5.18;3.10;;;;;;;13.82;100.00;92779.94;4992602;28;20046;-72
2022/08/08 04:55:12;;;;;;;5.82;2.90;;;;;;;13.85;100.00;92782.00;5026535;28;20050;-73
2022/08/08 04:57:38;;;;;;;6.70;3.08;;;;;;;13.92;100.00;92786.84;4993690;28;20049;-72
2022/08/08 05:00:06;;;;;;;4.38;2.65;;;;;;;13.99;100.00;92787.19;5009768;28;20046;-72
2022/08/08 05:02:33;;;;;;;5.10;2.88;;;;;;;14.06;100.00;92778.88;5010171;28;20113;-73
2022/08/08 05:04:59;;;;;;;6.05;3.08;;;;;;;14.16;100.00;92794.41;5009730;28;20155;-72
2022/08/08 05:07:25;;;;;;;5.20;2.85;;;;;;;14.22;100.00;92792.44;5011041;28;20117;-73
2022/08/08 05:09:51;;;;;;;5.05;3.00;;;;;;;14.26;100.00;92788.91;5009887;28;20145;-72
2022/08/08 05:12:17;;;;;;;4.57;2.90;;;;;;;14.32;100.00;92789.53;5009768;28;20136;-73
2022/08/08 05:14:43;;;;;;;6.68;3.03;;;;;;;14.35;100.00;92795.00;5009811;28;20038;-73
2022/08/08 05:17:09;;;;;;;6.78;3.20;;;;;;;14.41;100.00;92789.59;4993225;28;20053;-73
2022/08/08 05:19:36;;;;;;;4.70;2.80;;;;;;;14.46;100.00;92802.66;5025950;28;20030;-72
2022/08/08 05:22:05;;;;;;;7.00;2.65;;;;;;;14.48;100.00;92793.38;5009114;28;20045;-73
2022/08/08 05:24:32;;;;;;;4.70;2.60;;;;;;;14.52;100.00;92798.81;5008903;28;20034;-73
2022/08/08 05:26:58;;;;;;;4.65;2.83;;;;;;;14.56;100.00;92799.78;5010177;28;20034;-72
2022/08/08 05:29:24;;;;;;;7.13;2.67;;;;;;;14.63;100.00;92804.63;5029050;28;20034;-72
2022/08/08 05:31:50;;;;;;;8.45;2.80;;;;;;;14.70;100.00;92804.97;5027575;28;20048;-72
2022/08/08 05:34:29;;;;;;;5.70;2.75;;;;;;;14.77;99.56;92806.09;5011622;28;20029;-73
2022/08/08 05:36:57;;;;;;;5.35;2.50;;;;;;;14.86;98.82;92805.34;5028881;28;20033;-72
2022/08/08 05:39:50;;;;;;;5.22;2.63;;;;;;;14.96;98.68;92802.44;5027883;28;20364;-74
2022/08/08 05:42:36;;;;;;;5.35;2.70;;;;;;;15.08;98.21;92804.50;5011160;28;20042;-72
2022/08/08 05:45:02;;;;;;;4.97;2.47;;;;;;;15.16;97.61;92811.66;5009993;28;20124;-73
2022/08/08 05:47:28;;;;;;;5.75;2.60;;;;;;;15.23;97.10;92806.72;4993664;28;20053;-73
2022/08/08 05:49:55;;;;;;;4.75;2.75;;;;;;;15.37;96.60;92809.22;5009843;28;20034;-74
2022/08/08 05:52:22;;;;;;;4.20;2.70;;;;;;;15.50;96.30;92810.19;5024395;28;20495;-74
2022/08/08 05:54:48;;;;;;;5.30;2.45;;;;;;;15.61;96.32;92812.19;5020999;28;20049;-75
2022/08/08 05:57:15;;;;;;;4.10;2.42;;;;;;;15.74;95.98;92820.34;5005530;28;20042;-74
2022/08/08 05:59:47;;;;;;;6.18;2.50;;;;;;;15.88;95.65;92823.59;5029094;28;20410;-74
2022/08/08 06:05:14;;;;;;;4.70;2.53;;;;;;;16.27;94.76;92823.72;5027411;28;20049;-74
2022/08/08 06:07:41;;;;;;;4.20;2.53;;;;;;;16.42;94.07;92817.97;5029017;28;20128;-74
2022/08/08 06:10:10;;;;;;;4.90;2.20;;;;;;;16.71;93.05;92808.56;5005555;28;20183;-75
2022/08/08 06:12:37;;;;;;;3.53;2.10;;;;;;;17.52;89.48;92814.75;5021730;28;20141;-75
2022/08/08 06:15:06;;;;;;;5.45;2.35;;;;;;;18.46;87.17;92815.16;5028953;28;20053;-75
2022/08/08 06:17:36;;;;;;;3.58;2.17;;;;;;;19.32;83.26;92807.34;5029199;28;20499;-75
2022/08/08 06:20:11;;;;;;;8.25;2.42;;;;;;;20.07;76.01;92813.34;5029489;28;20065;-75
2022/08/08 06:22:38;;;;;;;4.82;2.30;;;;;;;20.83;74.58;92811.59;5029301;28;20078;-75
2022/08/08 06:25:11;;;;;;;4.28;2.00;;;;;;;21.44;68.24;92807.00;5013511;28;20112;-75
2022/08/08 06:27:45;;;;;;;4.00;2.20;;;;;;;21.99;69.99;92807.78;5030743;28;20041;-75
2022/08/08 06:30:12;;;;;;;7.00;2.42;;;;;;;22.69;66.12;92806.88;5024309;28;20411;-76
2022/08/08 06:33:03;;;;;;;7.32;2.00;;;;;;;23.13;66.59;92813.78;5009436;28;20496;-75
2022/08/08 06:35:31;;;;;;;9.23;2.20;;;;;;;23.61;60.04;92811.47;5009307;28;20029;-75
2022/08/08 06:38:05;;;;;;;4.95;1.85;;;;;;;24.14;58.79;92816.81;5009584;28;20022;-75
2022/08/08 06:40:35;;;;;;;4.18;2.10;;;;;;;24.54;57.50;92823.41;5009390;28;20049;-75
2022/08/08 06:43:07;;;;;;;4.97;1.92;;;;;;;24.51;58.68;92822.22;5012016;28;20038;-76
2022/08/08 06:45:43;;;;;;;6.15;2.17;;;;;;;24.81;57.41;92818.72;5025412;28;20041;-74
2022/08/08 06:48:09;;;;;;;5.88;2.13;;;;;;;24.97;57.49;92820.41;5032723;28;20083;-75
2022/08/08 06:50:38;;;;;;;3.20;1.90;;;;;;;25.21;54.74;92824.50;5032773;28;20433;-75
2022/08/08 06:53:07;;;;;;;5.70;1.90;;;;;;;24.71;56.31;92822.84;5016271;28;20508;-74
2022/08/08 06:55:34;;;;;;;6.38;1.98;;;;;;;24.50;61.48;92825.28;5032423;28;20056;-75
2022/08/08 06:58:02;;;;;;;4.47;1.80;;;;;;;24.54;58.07;92828.00;5032825;28;20542;-74
2022/08/08 07:00:33;;;;;;;4.57;1.90;;;;;;;24.53;56.35;92824.56;5016046;28;20037;-75
2022/08/08 07:03:01;;;;;;;5.45;1.75;;;;;;;24.37;58.20;92831.97;5016041;28;20046;-74
2022/08/08 07:05:31;;;;;;;6.03;2.25;;;;;;;23.93;59.54;92827.22;5016010;28;20112;-74
2022/08/08 07:08:16;;;;;;;4.93;1.90;;;;;;;23.64;60.41;92827.56;5033486;28;20036;-74
2022/08/08 07:10:52;;;;;;;3.70;1.95;;;;;;;23.67;62.38;92834.09;5015857;28;20044;-74
2022/08/08 07:13:18;;;;;;;5.32;1.90;;;;;;;23.26;60.90;92839.19;5032291;28;20495;-74
2022/08/08 07:16:03;;;;;;;4.32;1.80;;;;;;;23.16;61.47;92831.75;5015984;28;20050;-74
2022/08/08 07:18:35;;;;;;;4.97;1.90;;;;;;;23.12;60.95;92836.25;5032154;28;20037;-74
2022/08/08 07:21:05;;;;;;;5.30;2.30;;;;;;;23.28;63.24;92832.34;5032030;28;20037;-74
2022/08/08 07:23:47;;;;;;;4.97;1.92;;;;;;;23.87;60.70;92832.88;5032232;28;20460;-75
2022/08/08 07:26:15;;;;;;;6.50;2.10;;;;;;;24.17;60.27;92832.13;5031890;28;20051;-74
2022/08/08 07:28:42;;;;;;;4.20;2.03;;;;;;;24.43;61.82;92835.84;5031744;28;20407;-74
2022/08/08 07:31:08;;;;;;;4.90;2.75;;;;;;;23.95;62.92;92832.97;5031881;28;20045;-74
2022/08/08 07:33:35;;;;;;;3.83;1.77;;;;;;;23.77;63.95;92841.50;5033109;28;20041;-74
2022/08/08 07:36:04;;;;;;;4.28;2.00;;;;;;;23.48;65.39;92838.38;5031788;28;20040;-74
2022/08/08 07:38:31;;;;;;;4.78;1.98;;;;;;;23.22;66.13;92838.34;5015345;28;20029;-74
2022/08/08 07:41:07;;;;;;;6.47;2.00;;;;;;;23.06;68.27;92833.88;5016103;28;20040;-74
2022/08/08 07:43:37;;;;;;;5.30;2.00;;;;;;;23.29;65.74;92835.78;5031639;28;20554;-74
2022/08/08 07:46:03;;;;;;;4.78;2.10;;;;;;;23.05;60.36;92839.56;5031407;28;20033;-74
2022/08/08 07:48:30;;;;;;;3.67;2.05;;;;;;;23.52;58.48;92835.00;5015196;28;20176;-74
2022/08/08 07:50:59;;;;;;;4.25;2.17;;;;;;;23.39;63.73;92843.19;5031533;28;20120;-74
2022/08/08 07:53:48;;;;;;;10.07;2.10;;;;;;;23.06;64.04;92841.88;5030484;28;20057;-74
2022/08/08 07:56:16;;;;;;;3.88;1.80;;;;;;;22.99;63.88;92841.78;5032674;28;20052;-74
2022/08/08 07:58:44;;;;;;;3.85;2.10;;;;;;;22.71;62.12;92841.22;5015064;28;20033;-74
2022/08/08 08:01:19;;;;;;;3.42;2.00;;;;;;;22.57;65.13;92839.06;5031453;28;20038;-74
2022/08/08 08:04:11;;;;;;;4.07;2.05;;;;;;;22.54;64.43;92835.22;5016263;28;20407;-74
2022/08/08 08:06:37;;;;;;;3.70;2.00;;;;;;;22.67;61.51;92838.47;5031223;28;20040;-73
2022/08/08 08:09:11;;;;;;;3.30;1.98;;;;;;;22.80;63.68;92847.09;5014804;28;20412;-73
2022/08/08 08:11:44;;;;;;;5.40;2.00;;;;;;;22.53;65.69;92843.56;5014832;28;20116;-73
2022/08/08 08:14:18;;;;;;;5.88;2.15;;;;;;;22.80;65.44;92844.44;5031244;28;20086;-73
2022/08/08 08:16:47;;;;;;;4.22;1.88;;;;;;;22.99;58.64;92843.63;5031326;28;20036;-73
2022/08/08 08:19:14;;;;;;;3.40;1.77;;;;;;;23.01;52.87;92844.06;5014652;28;20487;-73
2022/08/08 08:21:46;;;;;;;5.15;1.80;;;;;;;23.19;54.70;92847.03;5014784;28;20044;-73
2022/08/08 08:24:19;;;;;;;3.88;2.15;;;;;;;23.07;52.98;92851.44;5031055;28;20468;-73
2022/08/08 08:26:45;;;;;;;4.28;2.00;;;;;;;22.94;57.94;92851.94;5030858;28;20388;-72
2022/08/08 08:29:10;;;;;;;3.42;1.70;;;;;;;22.82;57.10;92855.53;5030805;28;20044;-73
2022/08/08 08:31:38;;;;;;;4.75;1.90;;;;;;;22.66;54.36;92855.63;5030859;28;20033;-73
2022/08/08 08:34:04;;;;;;;4.28;1.73;;;;;;;22.87;55.06;92858.69;5030886;28;20149;-73
2022/08/08 08:36:32;;;;;;;3.05;1.70;;;;;;;22.92;51.25;92860.31;5030621;28;20041;-73
2022/08/08 08:39:00;;;;;;;4.65;1.90;;;;;;;23.00;57.03;92861.22;5032041;28;20041;-74
2022/08/08 08:41:33;;;;;;;3.30;1.73;;;;;;;22.91;56.08;92858.75;5015162;28;20120;-74
2022/08/08 08:44:01;;;;;;;5.65;2.00;;;;;;;23.19;53.49;92863.84;5030698;28;20033;-74
2022/08/08 08:46:28;;;;;;;3.38;1.80;;;;;;;23.27;52.29;92867.41;5014201;28;20566;-74
2022/08/08 08:48:56;;;;;;;2.83;1.60;;;;;;;23.22;49.87;92863.13;5030429;28;20491;-73
2022/08/08 08:51:25;;;;;;;2.83;1.70;;;;;;;23.45;52.42;92865.81;5014083;28;20041;-73
2022/08/08 08:53:53;;;;;;;4.00;1.90;;;;;;;23.59;53.82;92870.59;5013903;28;20041;-73
2022/08/08 08:56:24;;;;;;;3.15;1.58;;;;;;;23.50;48.41;92872.75;5030256;28;20132;-74
2022/08/08 08:58:57;;;;;;;3.10;1.45;;;;;;;23.73;50.61;92870.03;5030573;28;20035;-73
2022/08/08 09:01:37;;;;;;;2.95;1.70;;;;;;;23.83;52.46;92866.78;5030295;28;20048;-73
2022/08/08 09:04:20;;;;;;;4.95;1.85;;;;;;;23.77;51.21;92876.25;5030207;28;20495;-73
2022/08/08 09:06:48;;;;;;;3.75;1.80;;;;;;;23.51;52.60;92865.50;5030156;28;20107;-73
2022/08/08 09:09:28;;;;;;;3.95;2.20;;;;;;;23.53;56.79;92866.69;5031344;28;20061;-73
2022/08/08 09:12:02;;;;;;;4.00;1.90;;;;;;;23.35;53.53;92871.75;5014735;28;20045;-73
2022/08/08 09:14:31;;;;;;;5.35;2.20;;;;;;;23.14;56.54;92871.38;5030273;28;20038;-73
2022/08/08 09:16:59;;;;;;;3.47;2.10;;;;;;;23.27;58.30;92856.72;5013696;28;20515;-74
2022/08/08 09:19:25;;;;;;;5.93;2.13;;;;;;;23.42;55.18;92871.09;5031292;28;20483;-73
2022/08/08 09:21:51;;;;;;;4.22;2.00;;;;;;;23.51;55.01;92868.97;5029959;28;20029;-73
2022/08/08 09:24:18;;;;;;;4.10;2.17;;;;;;;23.34;58.84;92878.22;5029911;28;20037;-73
2022/08/08 09:27:07;;;;;;;5.05;2.20;;;;;;;23.30;57.03;92863.25;5029877;28;20037;-73
2022/08/08 09:29:49;;;;;;;4.88;2.10;;;;;;;23.40;57.59;92868.78;5029775;28;20446;-73
2022/08/08 09:32:39;;;;;;;5.20;2.50;;;;;;;23.39;58.82;92869.88;5031124;28;20152;-74
2022/08/08 09:35:19;;;;;;;5.38;1.90;;;;;;;23.61;60.12;92872.91;5031086;28;20044;-73
2022/08/08 09:37:49;;;;;;;4.78;2.20;;;;;;;23.37;55.78;92869.50;5029682;28;20038;-73
2022/08/08 09:40:21;;;;;;;3.83;2.30;;;;;;;23.45;55.01;92876.47;5029751;28;20041;-74
2022/08/08 09:43:14;;;;;;;4.32;2.20;;;;;;;23.53;56.58;92865.91;5031063;28;20045;-73
2022/08/08 09:45:57;;;;;;;3.40;2.05;;;;;;;23.53;55.15;92871.25;5030890;28;20049;-73
2022/08/08 09:48:23;;;;;;;3.58;2.17;;;;;;;23.62;56.13;92871.78;5030867;28;20030;-73
2022/08/08 09:50:50;;;;;;;6.78;2.20;;;;;;;23.79;56.20;92871.31;5013472;28;20049;-73
2022/08/08 09:53:19;;;;;;;2.90;1.85;;;;;;;23.93;55.65;92869.97;5029447;28;20052;-73
2022/08/08 09:55:46;;;;;;;7.57;2.30;;;;;;;24.17;55.41;92863.44;5029691;28;20084;-74
2022/08/08 09:58:19;;;;;;;3.65;2.10;;;;;;;24.35;53.42;92867.13;5030844;28;20091;-73
2022/08/08 10:00:47;;;;;;;6.35;2.60;;;;;;;24.03;55.29;92869.38;5030838;28;20072;-73
2022/08/08 10:03:17;;;;;;;7.78;2.20;;;;;;;24.01;55.96;92874.31;5031152;28;20434;-74
2022/08/08 10:05:44;;;;;;;5.85;2.05;;;;;;;24.06;54.75;92864.06;5030773;28;20044;-73
2022/08/08 10:08:10;;;;;;;4.32;2.10;;;;;;;24.12;54.41;92856.50;5030586;28;20038;-73
2022/08/08 10:10:35;;;;;;;3.75;2.00;;;;;;;24.21;53.88;92861.59;5029361;28;20046;-73
2022/08/08 10:13:18;;;;;;;3.40;2.00;;;;;;;24.17;53.80;92856.19;5030618;28;20151;-74
2022/08/08 10:15:45;;;;;;;;;;;;;;;24.35;53.16;92866.34;5030931;28;20108;-74
2022/08/08 10:18:11;;;;;;;3.60;2.00;;;;;;;24.44;52.42;92859.59;5031815;28;19940;-75
2022/08/08 10:20:45;;;;;;;3.47;1.98;;;;;;;24.33;52.20;92863.25;5023883;28;20030;-76
2022/08/08 10:23:15;;;;;;;5.40;2.20;;;;;;;24.36;53.76;92867.88;5019152;28;20065;-76
2022/08/08 10:25:43;;;;;;;3.85;2.03;;;;;;;24.43;51.76;92863.41;5034338;28;20041;-75
2022/08/08 10:28:16;;;;;;;3.97;2.40;;;;;;;24.55;52.20;92870.44;5034150;28;20121;-76
2022/08/08 10:30:56;;;;;;;;;;;;;;;24.54;51.08;92857.44;5033316;28;20037;-75
2022/08/08 10:33:33;;;;;;;4.00;2.30;;;;;;;24.58;52.55;92861.69;5034427;28;19999;-76
2022/08/08 10:36:01;;;;;;;4.05;2.30;;;;;;;24.51;51.88;92859.69;5033071;28;20041;-76
2022/08/08 10:38:29;;;;;;;3.85;2.28;;;;;;;24.43;53.78;92852.69;5013842;28;20112;-76
2022/08/08 10:41:00;;;;;;;3.60;2.30;;;;;;;24.47;51.17;92861.56;5022848;28;20487;-76
2022/08/08 10:43:36;;;;;;;3.83;1.75;;;;;;;24.77;53.38;92860.78;5029883;28;20038;-75
2022/08/08 10:46:02;;;;;;;3.75;2.10;;;;;;;24.79;51.02;92857.69;5013200;28;20034;-76
2022/08/08 10:48:32;;;;;;;4.07;2.40;;;;;;;24.93;50.94;92865.91;5014327;28;20045;-75
2022/08/08 10:50:58;;;;;;;6.80;2.53;;;;;;;25.06;50.98;92861.03;5014242;28;20136;-76
2022/08/08 10:53:35;;;;;;;3.55;2.40;;;;;;;25.05;52.25;92860.28;5012034;28;20084;-76
2022/08/08 10:56:00;;;;;;;5.80;2.33;;;;;;;24.98;50.55;92852.19;5034162;28;20051;-76
2022/08/08 10:58:27;;;;;;;3.33;2.20;;;;;;;25.02;50.73;92857.59;5034278;28;20029;-74
2022/08/08 11:00:54;;;;;;;3.55;2.10;;;;;;;25.28;50.65;92846.75;5032376;28;20033;-75
2022/08/08 11:03:20;;;;;;;4.63;2.22;;;;;;;25.39;49.81;92844.16;5031326;28;20037;-75
2022/08/08 11:05:50;;;;;;;3.40;2.10;;;;;;;25.06;50.70;92853.00;5031321;28;20045;-75
2022/08/08 11:08:27;;;;;;;3.30;2.08;;;;;;;25.14;47.20;92847.34;5032781;28;20045;-75
2022/08/08 11:11:07;;;;;;;4.55;2.30;;;;;;;25.29;48.59;92842.16;5032492;28;20033;-76
2022/08/08 11:13:45;;;;;;;3.40;2.13;;;;;;;25.31;47.74;92842.56;5032789;28;20042;-76
2022/08/08 11:16:22;;;;;;;9.80;2.47;;;;;;;25.39;46.65;92844.16;5015502;28;20052;-75
2022/08/08 11:18:49;;;;;;;3.65;2.40;;;;;;;25.09;48.84;92846.94;5029089;28;20042;-76
2022/08/08 11:21:15;;;;;;;3.72;2.25;;;;;;;25.14;48.16;92839.31;5030263;28;20034;-76
2022/08/08 11:23:42;;;;;;;5.90;2.15;;;;;;;25.03;47.58;92837.69;5032691;28;20029;-77
2022/08/08 11:26:12;;;;;;;3.30;1.98;;;;;;;25.22;47.80;92847.44;5022392;28;20459;-77
2022/08/08 11:28:38;;;;;;;3.95;2.50;;;;;;;25.29;49.02;92842.16;5028005;28;20041;-76
2022/08/08 11:31:04;;;;;;;3.72;2.30;;;;;;;25.37;50.25;92846.44;5033345;28;20017;-74
2022/08/08 11:33:35;;;;;;;3.70;2.20;;;;;;;24.99;50.29;92836.88;5032448;28;20056;-74
2022/08/08 11:36:02;;;;;;;3.97;2.30;;;;;;;25.20;48.95;92839.78;5033085;28;20029;-74
2022/08/08 11:38:29;;;;;;;5.43;2.53;;;;;;;25.38;47.63;92837.28;5028507;28;20276;-75
2022/08/08 11:40:55;;;;;;;3.90;2.40;;;;;;;25.42;49.68;92826.56;5031535;28;20041;-74
2022/08/08 11:43:23;;;;;;;4.80;2.70;;;;;;;25.42;49.31;92834.59;5017002;28;20408;-72
2022/08/08 11:45:51;;;;;;;4.22;2.38;;;;;;;25.45;48.63;92834.66;5019712;28;20054;-71
2022/08/08 11:48:18;;;;;;;4.50;2.45;;;;;;;25.39;49.06;92832.69;5013428;28;20061;-72
2022/08/08 11:50:45;;;;;;;3.78;2.25;;;;;;;25.55;49.21;92828.59;5029816;28;20037;-73
2022/08/08 11:53:12;;;;;;;3.95;2.65;;;;;;;25.58;48.31;92826.31;5030342;28;20057;-73
2022/08/08 11:55:49;;;;;;;4.18;2.60;;;;;;;25.77;50.08;92828.75;5012526;28;20038;-73
2022/08/08 11:58:15;;;;;;;3.90;2.40;;;;;;;25.82;49.74;92819.59;5012981;28;20038;-73
2022/08/08 12:00:52;;;;;;;6.18;2.33;;;;;;;25.76;47.43;92825.31;4995380;28;20057;-73
2022/08/08 12:03:18;;;;;;;3.75;2.08;;;;;;;25.70;44.19;92818.75;4978940;28;20048;-73
2022/08/08 12:05:45;;;;;;;4.22;2.30;;;;;;;25.59;47.13;92822.50;4995389;28;20120;-73
2022/08/08 12:08:14;;;;;;;5.75;2.70;;;;;;;25.72;45.69;92815.69;4986601;28;20524;-72